sensor_id;sensor_type;location;lat;lon;timestamp;P1;durP1;ratioP1;P2;durP2;ratioP2
52104;SDS011;38103;42.776;23.112;2022-10-16T00:01:06;16.52;;;7.70;;
52104;SDS011;38103;42.776;23.112;2022-10-16T00:03:36;16.52;;;7.13;;
52104;SDS011;38103;42.776;23.112;2022-10-16T00:06:02;13.93;;;7.00;;
52104;SDS011;38103;42.776;23.112;2022-10-16T00:08:28;14.77;;;7.07;;
52104;SDS011;38103;42.776;23.112;2022-10-16T00:11:01;16.35;;;7.57;;
52104;SDS011;38103;42.776;23.112;2022-10-16T00:13:30;15.05;;;7.35;;
52104;SDS011;38103;42.776;23.112;2022-10-16T00:15:57;16.45;;;7.97;;
52104;SDS011;38103;42.776;23.112;2022-10-16T00:18:24;14.73;;;7.25;;
52104;SDS011;38103;42.776;23.112;2022-10-16T00:20:50;15.43;;;7.47;;
52104;SDS011;38103;42.776;23.112;2022-10-16T00:23:15;17.20;;;7.43;;
52104;SDS011;38103;42.776;23.112;2022-10-16T00:25:41;15.25;;;7.45;;
52104;SDS011;38103;42.776;23.112;2022-10-16T00:28:06;14.45;;;7.05;;
52104;SDS011;38103;42.776;23.112;2022-10-16T00:30:32;13.77;;;7.53;;
52104;SDS011;38103;42.776;23.112;2022-10-16T00:32:57;16.63;;;7.10;;
52104;SDS011;38103;42.776;23.112;2022-10-16T00:35:22;16.85;;;7.13;;
52104;SDS011;38103;42.776;23.112;2022-10-16T00:37:48;19.48;;;8.50;;
52104;SDS011;38103;42.776;23.112;2022-10-16T00:40:14;16.83;;;8.18;;
52104;SDS011;38103;42.776;23.112;2022-10-16T00:42:39;16.17;;;7.50;;
52104;SDS011;38103;42.776;23.112;2022-10-16T00:45:05;16.30;;;7.50;;
52104;SDS011;38103;42.776;23.112;2022-10-16T00:47:32;15.55;;;6.85;;
52104;SDS011;38103;42.776;23.112;2022-10-16T00:50:02;14.88;;;7.50;;
52104;SDS011;38103;42.776;23.112;2022-10-16T00:52:41;15.93;;;8.13;;
52104;SDS011;38103;42.776;23.112;2022-10-16T00:55:09;15.57;;;7.55;;
52104;SDS011;38103;42.776;23.112;2022-10-16T00:57:35;16.40;;;7.53;;
52104;SDS011;38103;42.776;23.112;2022-10-16T01:00:06;15.52;;;7.55;;
52104;SDS011;38103;42.776;23.112;2022-10-16T01:02:33;18.05;;;8.18;;
52104;SDS011;38103;42.776;23.112;2022-10-16T01:04:59;17.60;;;7.95;;
52104;SDS011;38103;42.776;23.112;2022-10-16T01:18:44;18.83;;;8.52;;
52104;SDS011;38103;42.776;23.112;2022-10-16T01:21:16;17.48;;;8.50;;
52104;SDS011;38103;42.776;23.112;2022-10-16T01:27:07;17.33;;;9.05;;
52104;SDS011;38103;42.776;23.112;2022-10-16T01:32:22;16.58;;;7.60;;
52104;SDS011;38103;42.776;23.112;2022-10-16T01:34:58;17.00;;;8.13;;
52104;SDS011;38103;42.776;23.112;2022-10-16T01:40:23;15.45;;;7.30;;
52104;SDS011;38103;42.776;23.112;2022-10-16T01:42:55;18.38;;;7.15;;
52104;SDS011;38103;42.776;23.112;2022-10-16T01:45:26;19.00;;;7.93;;
52104;SDS011;38103;42.776;23.112;2022-10-16T01:47:54;17.05;;;8.02;;
52104;SDS011;38103;42.776;23.112;2022-10-16T01:50:20;15.48;;;8.07;;
52104;SDS011;38103;42.776;23.112;2022-10-16T01:52:48;17.60;;;7.93;;
52104;SDS011;38103;42.776;23.112;2022-10-16T01:55:19;15.45;;;8.18;;
52104;SDS011;38103;42.776;23.112;2022-10-16T01:57:58;16.48;;;7.60;;
52104;SDS011;38103;42.776;23.112;2022-10-16T02:00:26;15.88;;;7.85;;
52104;SDS011;38103;42.776;23.112;2022-10-16T02:02:53;16.98;;;8.02;;
52104;SDS011;38103;42.776;23.112;2022-10-16T02:08:03;20.05;;;8.15;;
52104;SDS011;38103;42.776;23.112;2022-10-16T02:10:29;17.33;;;8.45;;
52104;SDS011;38103;42.776;23.112;2022-10-16T02:15:59;19.27;;;8.30;;
52104;SDS011;38103;42.776;23.112;2022-10-16T02:18:25;16.52;;;8.45;;
52104;SDS011;38103;42.776;23.112;2022-10-16T02:20:59;18.33;;;8.38;;
52104;SDS011;38103;42.776;23.112;2022-10-16T02:23:37;16.55;;;7.72;;
52104;SDS011;38103;42.776;23.112;2022-10-16T02:29:17;15.57;;;7.82;;
52104;SDS011;38103;42.776;23.112;2022-10-16T02:31:49;17.65;;;8.60;;
52104;SDS011;38103;42.776;23.112;2022-10-16T02:34:18;16.20;;;8.57;;
52104;SDS011;38103;42.776;23.112;2022-10-16T02:36:47;18.80;;;8.23;;
52104;SDS011;38103;42.776;23.112;2022-10-16T02:39:16;16.95;;;8.38;;
52104;SDS011;38103;42.776;23.112;2022-10-16T02:41:43;18.35;;;8.48;;
52104;SDS011;38103;42.776;23.112;2022-10-16T02:44:08;16.38;;;7.63;;
52104;SDS011;38103;42.776;23.112;2022-10-16T02:46:34;18.15;;;8.30;;
52104;SDS011;38103;42.776;23.112;2022-10-16T02:48:59;18.02;;;7.55;;
52104;SDS011;38103;42.776;23.112;2022-10-16T02:51:24;15.35;;;8.00;;
52104;SDS011;38103;42.776;23.112;2022-10-16T02:53:50;17.98;;;7.55;;
52104;SDS011;38103;42.776;23.112;2022-10-16T02:56:15;17.35;;;7.85;;
52104;SDS011;38103;42.776;23.112;2022-10-16T02:58:40;17.23;;;7.93;;
52104;SDS011;38103;42.776;23.112;2022-10-16T03:01:06;17.10;;;8.35;;
52104;SDS011;38103;42.776;23.112;2022-10-16T03:03:31;21.90;;;7.97;;
52104;SDS011;38103;42.776;23.112;2022-10-16T03:05:56;15.00;;;7.55;;
52104;SDS011;38103;42.776;23.112;2022-10-16T03:08:22;15.55;;;7.82;;
52104;SDS011;38103;42.776;23.112;2022-10-16T03:10:50;16.15;;;7.88;;
52104;SDS011;38103;42.776;23.112;2022-10-16T03:13:15;17.70;;;8.00;;
52104;SDS011;38103;42.776;23.112;2022-10-16T03:15:41;18.40;;;9.25;;
52104;SDS011;38103;42.776;23.112;2022-10-16T03:18:06;16.95;;;8.32;;
52104;SDS011;38103;42.776;23.112;2022-10-16T03:20:32;18.52;;;8.68;;
52104;SDS011;38103;42.776;23.112;2022-10-16T03:22:58;15.38;;;7.72;;
52104;SDS011;38103;42.776;23.112;2022-10-16T03:25:23;18.35;;;8.70;;
52104;SDS011;38103;42.776;23.112;2022-10-16T03:27:49;16.33;;;7.82;;
52104;SDS011;38103;42.776;23.112;2022-10-16T03:30:14;18.13;;;8.75;;
52104;SDS011;38103;42.776;23.112;2022-10-16T03:32:41;21.50;;;9.07;;
52104;SDS011;38103;42.776;23.112;2022-10-16T03:35:06;25.02;;;9.48;;
52104;SDS011;38103;42.776;23.112;2022-10-16T03:37:32;19.55;;;9.40;;
52104;SDS011;38103;42.776;23.112;2022-10-16T03:39:58;16.38;;;8.55;;
52104;SDS011;38103;42.776;23.112;2022-10-16T03:42:24;17.40;;;8.35;;
52104;SDS011;38103;42.776;23.112;2022-10-16T03:44:49;17.27;;;8.50;;
52104;SDS011;38103;42.776;23.112;2022-10-16T03:47:14;17.23;;;8.80;;
52104;SDS011;38103;42.776;23.112;2022-10-16T03:49:40;16.88;;;9.25;;
52104;SDS011;38103;42.776;23.112;2022-10-16T03:52:05;23.38;;;10.52;;
52104;SDS011;38103;42.776;23.112;2022-10-16T03:54:31;20.52;;;9.48;;
52104;SDS011;38103;42.776;23.112;2022-10-16T03:56:56;19.17;;;8.18;;
52104;SDS011;38103;42.776;23.112;2022-10-16T03:59:21;18.27;;;9.23;;
52104;SDS011;38103;42.776;23.112;2022-10-16T04:01:47;17.08;;;8.45;;
52104;SDS011;38103;42.776;23.112;2022-10-16T04:04:12;18.90;;;9.27;;
52104;SDS011;38103;42.776;23.112;2022-10-16T04:06:38;19.13;;;9.27;;
52104;SDS011;38103;42.776;23.112;2022-10-16T04:09:03;19.63;;;9.88;;
52104;SDS011;38103;42.776;23.112;2022-10-16T04:11:28;19.75;;;9.80;;
52104;SDS011;38103;42.776;23.112;2022-10-16T04:13:55;20.83;;;10.35;;
52104;SDS011;38103;42.776;23.112;2022-10-16T04:16:20;20.00;;;10.10;;
52104;SDS011;38103;42.776;23.112;2022-10-16T04:18:46;20.90;;;10.38;;
52104;SDS011;38103;42.776;23.112;2022-10-16T04:21:11;19.05;;;9.43;;
52104;SDS011;38103;42.776;23.112;2022-10-16T04:23:36;22.58;;;9.88;;
52104;SDS011;38103;42.776;23.112;2022-10-16T04:26:02;17.30;;;8.63;;
52104;SDS011;38103;42.776;23.112;2022-10-16T04:28:27;20.50;;;9.75;;
52104;SDS011;38103;42.776;23.112;2022-10-16T04:30:53;22.05;;;10.43;;
52104;SDS011;38103;42.776;23.112;2022-10-16T04:33:19;20.48;;;9.95;;
52104;SDS011;38103;42.776;23.112;2022-10-16T04:35:44;22.70;;;10.15;;
52104;SDS011;38103;42.776;23.112;2022-10-16T04:38:10;21.27;;;10.10;;
52104;SDS011;38103;42.776;23.112;2022-10-16T04:40:35;22.35;;;9.80;;
52104;SDS011;38103;42.776;23.112;2022-10-16T04:43:02;17.65;;;9.27;;
52104;SDS011;38103;42.776;23.112;2022-10-16T04:45:28;21.17;;;9.60;;
52104;SDS011;38103;42.776;23.112;2022-10-16T04:47:56;19.95;;;8.77;;
52104;SDS011;38103;42.776;23.112;2022-10-16T04:50:22;23.10;;;9.27;;
52104;SDS011;38103;42.776;23.112;2022-10-16T04:52:48;20.23;;;9.25;;
52104;SDS011;38103;42.776;23.112;2022-10-16T04:55:13;20.48;;;9.30;;
52104;SDS011;38103;42.776;23.112;2022-10-16T04:57:38;22.10;;;10.15;;
52104;SDS011;38103;42.776;23.112;2022-10-16T05:00:04;19.65;;;9.82;;
52104;SDS011;38103;42.776;23.112;2022-10-16T05:02:30;21.55;;;9.75;;
52104;SDS011;38103;42.776;23.112;2022-10-16T05:04:55;20.67;;;10.57;;
52104;SDS011;38103;42.776;23.112;2022-10-16T05:07:21;22.85;;;12.18;;
52104;SDS011;38103;42.776;23.112;2022-10-16T05:09:46;23.10;;;11.93;;
52104;SDS011;38103;42.776;23.112;2022-10-16T05:12:11;21.98;;;12.50;;
52104;SDS011;38103;42.776;23.112;2022-10-16T05:14:37;24.00;;;11.35;;
52104;SDS011;38103;42.776;23.112;2022-10-16T05:17:02;19.70;;;10.48;;
52104;SDS011;38103;42.776;23.112;2022-10-16T05:19:28;20.10;;;9.70;;
52104;SDS011;38103;42.776;23.112;2022-10-16T05:21:53;17.52;;;9.75;;
52104;SDS011;38103;42.776;23.112;2022-10-16T05:24:19;19.75;;;9.65;;
52104;SDS011;38103;42.776;23.112;2022-10-16T05:26:44;21.10;;;9.85;;
52104;SDS011;38103;42.776;23.112;2022-10-16T05:29:09;17.92;;;9.48;;
52104;SDS011;38103;42.776;23.112;2022-10-16T05:31:35;18.48;;;9.32;;
52104;SDS011;38103;42.776;23.112;2022-10-16T05:34:00;18.73;;;9.23;;
52104;SDS011;38103;42.776;23.112;2022-10-16T05:36:26;21.15;;;9.70;;
52104;SDS011;38103;42.776;23.112;2022-10-16T05:38:52;20.02;;;9.20;;
52104;SDS011;38103;42.776;23.112;2022-10-16T05:41:18;21.38;;;8.32;;
52104;SDS011;38103;42.776;23.112;2022-10-16T05:43:46;18.42;;;7.85;;
52104;SDS011;38103;42.776;23.112;2022-10-16T05:46:12;16.73;;;7.45;;
52104;SDS011;38103;42.776;23.112;2022-10-16T05:48:38;16.08;;;7.72;;
52104;SDS011;38103;42.776;23.112;2022-10-16T05:51:04;13.52;;;6.65;;
52104;SDS011;38103;42.776;23.112;2022-10-16T05:53:34;16.60;;;6.82;;
52104;SDS011;38103;42.776;23.112;2022-10-16T05:56:02;16.02;;;7.28;;
52104;SDS011;38103;42.776;23.112;2022-10-16T05:58:29;14.60;;;6.63;;
52104;SDS011;38103;42.776;23.112;2022-10-16T06:01:03;14.52;;;7.07;;
52104;SDS011;38103;42.776;23.112;2022-10-16T06:03:34;14.50;;;7.68;;
52104;SDS011;38103;42.776;23.112;2022-10-16T06:06:06;22.65;;;10.43;;
52104;SDS011;38103;42.776;23.112;2022-10-16T06:11:06;19.67;;;9.30;;
52104;SDS011;38103;42.776;23.112;2022-10-16T06:13:33;19.50;;;8.30;;
52104;SDS011;38103;42.776;23.112;2022-10-16T06:15:59;19.27;;;8.10;;
52104;SDS011;38103;42.776;23.112;2022-10-16T06:18:25;17.88;;;8.85;;
52104;SDS011;38103;42.776;23.112;2022-10-16T06:20:52;19.85;;;8.68;;
52104;SDS011;38103;42.776;23.112;2022-10-16T06:23:18;15.18;;;6.97;;
52104;SDS011;38103;42.776;23.112;2022-10-16T06:25:44;14.40;;;7.18;;
52104;SDS011;38103;42.776;23.112;2022-10-16T06:28:09;17.90;;;7.68;;
52104;SDS011;38103;42.776;23.112;2022-10-16T06:30:34;17.15;;;8.63;;
52104;SDS011;38103;42.776;23.112;2022-10-16T06:33:00;19.67;;;7.75;;
52104;SDS011;38103;42.776;23.112;2022-10-16T06:35:25;17.65;;;7.78;;
52104;SDS011;38103;42.776;23.112;2022-10-16T06:37:52;19.02;;;8.50;;
52104;SDS011;38103;42.776;23.112;2022-10-16T06:40:18;13.90;;;7.78;;
52104;SDS011;38103;42.776;23.112;2022-10-16T06:42:43;14.40;;;7.40;;
52104;SDS011;38103;42.776;23.112;2022-10-16T06:45:09;15.50;;;8.02;;
52104;SDS011;38103;42.776;23.112;2022-10-16T06:47:34;14.82;;;8.25;;
52104;SDS011;38103;42.776;23.112;2022-10-16T06:50:00;18.40;;;7.57;;
52104;SDS011;38103;42.776;23.112;2022-10-16T06:52:27;13.38;;;6.90;;
52104;SDS011;38103;42.776;23.112;2022-10-16T06:54:53;15.50;;;7.30;;
52104;SDS011;38103;42.776;23.112;2022-10-16T06:57:18;17.38;;;8.48;;
52104;SDS011;38103;42.776;23.112;2022-10-16T06:59:43;18.05;;;7.32;;
52104;SDS011;38103;42.776;23.112;2022-10-16T07:02:09;14.32;;;7.30;;
52104;SDS011;38103;42.776;23.112;2022-10-16T07:04:35;13.70;;;7.18;;
52104;SDS011;38103;42.776;23.112;2022-10-16T07:07:01;13.85;;;6.72;;
52104;SDS011;38103;42.776;23.112;2022-10-16T07:09:26;14.50;;;7.00;;
52104;SDS011;38103;42.776;23.112;2022-10-16T07:11:52;15.45;;;6.90;;
52104;SDS011;38103;42.776;23.112;2022-10-16T07:14:19;15.90;;;7.20;;
52104;SDS011;38103;42.776;23.112;2022-10-16T07:16:46;14.25;;;6.30;;
52104;SDS011;38103;42.776;23.112;2022-10-16T07:19:12;13.30;;;6.63;;
52104;SDS011;38103;42.776;23.112;2022-10-16T07:21:40;13.80;;;6.78;;
52104;SDS011;38103;42.776;23.112;2022-10-16T07:24:07;12.55;;;5.95;;
52104;SDS011;38103;42.776;23.112;2022-10-16T07:26:36;13.68;;;6.63;;
52104;SDS011;38103;42.776;23.112;2022-10-16T07:29:04;13.70;;;6.18;;
52104;SDS011;38103;42.776;23.112;2022-10-16T07:31:30;13.25;;;7.00;;
52104;SDS011;38103;42.776;23.112;2022-10-16T07:33:57;13.50;;;6.07;;
52104;SDS011;38103;42.776;23.112;2022-10-16T07:36:24;12.07;;;6.20;;
52104;SDS011;38103;42.776;23.112;2022-10-16T07:38:49;16.48;;;6.43;;
52104;SDS011;38103;42.776;23.112;2022-10-16T07:41:15;12.18;;;6.25;;
52104;SDS011;38103;42.776;23.112;2022-10-16T07:43:45;13.07;;;5.80;;
52104;SDS011;38103;42.776;23.112;2022-10-16T07:46:15;12.88;;;5.75;;
52104;SDS011;38103;42.776;23.112;2022-10-16T07:48:41;12.10;;;5.72;;
52104;SDS011;38103;42.776;23.112;2022-10-16T07:51:10;14.93;;;5.97;;
52104;SDS011;38103;42.776;23.112;2022-10-16T07:53:36;14.73;;;6.13;;
52104;SDS011;38103;42.776;23.112;2022-10-16T07:56:03;14.65;;;5.80;;
52104;SDS011;38103;42.776;23.112;2022-10-16T07:58:30;17.08;;;6.10;;
52104;SDS011;38103;42.776;23.112;2022-10-16T08:00:56;12.70;;;5.85;;
52104;SDS011;38103;42.776;23.112;2022-10-16T08:03:22;14.15;;;5.95;;
52104;SDS011;38103;42.776;23.112;2022-10-16T08:05:48;13.35;;;6.57;;
52104;SDS011;38103;42.776;23.112;2022-10-16T08:08:14;17.38;;;6.30;;
52104;SDS011;38103;42.776;23.112;2022-10-16T08:10:41;12.75;;;6.35;;
52104;SDS011;38103;42.776;23.112;2022-10-16T08:13:06;12.98;;;6.20;;
52104;SDS011;38103;42.776;23.112;2022-10-16T08:15:32;14.10;;;6.22;;
52104;SDS011;38103;42.776;23.112;2022-10-16T08:17:58;14.90;;;6.72;;
52104;SDS011;38103;42.776;23.112;2022-10-16T08:20:25;13.80;;;6.22;;
52104;SDS011;38103;42.776;23.112;2022-10-16T08:22:51;13.02;;;6.30;;
52104;SDS011;38103;42.776;23.112;2022-10-16T08:25:17;20.48;;;7.18;;
52104;SDS011;38103;42.776;23.112;2022-10-16T08:27:42;12.93;;;5.97;;
52104;SDS011;38103;42.776;23.112;2022-10-16T08:30:09;14.15;;;6.20;;
52104;SDS011;38103;42.776;23.112;2022-10-16T08:32:35;14.48;;;6.53;;
52104;SDS011;38103;42.776;23.112;2022-10-16T08:35:00;13.45;;;6.20;;
52104;SDS011;38103;42.776;23.112;2022-10-16T08:37:29;16.55;;;7.32;;
52104;SDS011;38103;42.776;23.112;2022-10-16T08:39:55;12.95;;;6.35;;
52104;SDS011;38103;42.776;23.112;2022-10-16T08:42:40;11.57;;;5.40;;
52104;SDS011;38103;42.776;23.112;2022-10-16T08:50:51;14.60;;;5.00;;
52104;SDS011;38103;42.776;23.112;2022-10-16T08:53:20;10.55;;;4.45;;
52104;SDS011;38103;42.776;23.112;2022-10-16T08:55:52;12.63;;;5.55;;
52104;SDS011;38103;42.776;23.112;2022-10-16T09:00:59;13.93;;;5.75;;
52104;SDS011;38103;42.776;23.112;2022-10-16T09:11:58;13.68;;;5.13;;
52104;SDS011;38103;42.776;23.112;2022-10-16T09:22:42;12.77;;;5.13;;
52104;SDS011;38103;42.776;23.112;2022-10-16T09:25:12;13.57;;;4.93;;
52104;SDS011;38103;42.776;23.112;2022-10-16T09:27:45;16.42;;;6.10;;
52104;SDS011;38103;42.776;23.112;2022-10-16T09:30:13;12.05;;;4.85;;
52104;SDS011;38103;42.776;23.112;2022-10-16T09:32:44;12.60;;;4.57;;
52104;SDS011;38103;42.776;23.112;2022-10-16T09:35:16;12.73;;;5.22;;
52104;SDS011;38103;42.776;23.112;2022-10-16T09:37:45;14.52;;;5.80;;
52104;SDS011;38103;42.776;23.112;2022-10-16T09:40:27;13.02;;;5.60;;
52104;SDS011;38103;42.776;23.112;2022-10-16T09:43:19;13.63;;;5.45;;
52104;SDS011;38103;42.776;23.112;2022-10-16T09:45:56;12.82;;;5.82;;
52104;SDS011;38103;42.776;23.112;2022-10-16T09:48:23;11.52;;;5.07;;
52104;SDS011;38103;42.776;23.112;2022-10-16T09:50:55;12.48;;;4.70;;
52104;SDS011;38103;42.776;23.112;2022-10-16T09:53:22;9.57;;;3.95;;
52104;SDS011;38103;42.776;23.112;2022-10-16T09:55:51;11.68;;;4.50;;
52104;SDS011;38103;42.776;23.112;2022-10-16T09:58:21;13.52;;;4.70;;
52104;SDS011;38103;42.776;23.112;2022-10-16T10:00:52;14.07;;;5.30;;
52104;SDS011;38103;42.776;23.112;2022-10-16T10:03:25;12.23;;;4.95;;
52104;SDS011;38103;42.776;23.112;2022-10-16T10:06:01;14.95;;;4.88;;
52104;SDS011;38103;42.776;23.112;2022-10-16T10:08:32;9.75;;;4.00;;
52104;SDS011;38103;42.776;23.112;2022-10-16T10:10:58;9.90;;;3.90;;
52104;SDS011;38103;42.776;23.112;2022-10-16T10:13:24;11.25;;;4.25;;
52104;SDS011;38103;42.776;23.112;2022-10-16T10:15:51;12.77;;;4.00;;
52104;SDS011;38103;42.776;23.112;2022-10-16T10:18:18;11.50;;;4.78;;
52104;SDS011;38103;42.776;23.112;2022-10-16T10:20:46;9.98;;;3.80;;
52104;SDS011;38103;42.776;23.112;2022-10-16T10:23:24;12.73;;;4.20;;
52104;SDS011;38103;42.776;23.112;2022-10-16T10:31:21;9.15;;;4.00;;
52104;SDS011;38103;42.776;23.112;2022-10-16T10:36:47;9.82;;;3.63;;
52104;SDS011;38103;42.776;23.112;2022-10-16T10:39:25;9.77;;;3.67;;
52104;SDS011;38103;42.776;23.112;2022-10-16T10:42:18;12.38;;;4.50;;
52104;SDS011;38103;42.776;23.112;2022-10-16T10:44:57;11.05;;;4.43;;
52104;SDS011;38103;42.776;23.112;2022-10-16T11:01:29;10.85;;;4.07;;
52104;SDS011;38103;42.776;23.112;2022-10-16T11:07:09;9.48;;;3.35;;
52104;SDS011;38103;42.776;23.112;2022-10-16T11:09:47;10.30;;;3.97;;
52104;SDS011;38103;42.776;23.112;2022-10-16T11:12:17;12.03;;;3.97;;
52104;SDS011;38103;42.776;23.112;2022-10-16T11:15:07;9.43;;;3.63;;
52104;SDS011;38103;42.776;23.112;2022-10-16T11:17:50;10.13;;;3.28;;
52104;SDS011;38103;42.776;23.112;2022-10-16T11:20:32;9.13;;;3.25;;
52104;SDS011;38103;42.776;23.112;2022-10-16T11:23:48;11.65;;;3.45;;
52104;SDS011;38103;42.776;23.112;2022-10-16T11:25:54;8.05;;;2.97;;
52104;SDS011;38103;42.776;23.112;2022-10-16T11:28:26;10.55;;;3.40;;
52104;SDS011;38103;42.776;23.112;2022-10-16T11:31:11;8.85;;;3.28;;
52104;SDS011;38103;42.776;23.112;2022-10-16T11:34:31;12.07;;;3.75;;
52104;SDS011;38103;42.776;23.112;2022-10-16T11:37:29;9.02;;;3.38;;
52104;SDS011;38103;42.776;23.112;2022-10-16T11:39:39;10.63;;;3.80;;
52104;SDS011;38103;42.776;23.112;2022-10-16T11:58:21;8.02;;;2.83;;
52104;SDS011;38103;42.776;23.112;2022-10-16T12:01:02;9.30;;;3.15;;
52104;SDS011;38103;42.776;23.112;2022-10-16T12:03:48;7.60;;;2.75;;
52104;SDS011;38103;42.776;23.112;2022-10-16T12:06:30;9.82;;;3.22;;
52104;SDS011;38103;42.776;23.112;2022-10-16T12:08:58;9.52;;;3.00;;
52104;SDS011;38103;42.776;23.112;2022-10-16T12:16:37;8.52;;;3.25;;
52104;SDS011;38103;42.776;23.112;2022-10-16T12:19:13;8.45;;;2.97;;
52104;SDS011;38103;42.776;23.112;2022-10-16T12:21:41;9.68;;;3.30;;
52104;SDS011;38103;42.776;23.112;2022-10-16T12:24:19;10.45;;;3.65;;
52104;SDS011;38103;42.776;23.112;2022-10-16T12:26:46;10.40;;;3.72;;
52104;SDS011;38103;42.776;23.112;2022-10-16T12:29:22;11.07;;;3.10;;
52104;SDS011;38103;42.776;23.112;2022-10-16T12:31:55;8.87;;;3.00;;
52104;SDS011;38103;42.776;23.112;2022-10-16T12:34:26;8.60;;;3.15;;
52104;SDS011;38103;42.776;23.112;2022-10-16T12:36:54;8.80;;;3.22;;
52104;SDS011;38103;42.776;23.112;2022-10-16T12:39:39;12.55;;;3.25;;
52104;SDS011;38103;42.776;23.112;2022-10-16T12:42:36;10.70;;;3.25;;
52104;SDS011;38103;42.776;23.112;2022-10-16T12:45:02;9.93;;;3.40;;
52104;SDS011;38103;42.776;23.112;2022-10-16T12:47:58;8.55;;;3.30;;
52104;SDS011;38103;42.776;23.112;2022-10-16T12:50:27;8.80;;;3.10;;
52104;SDS011;38103;42.776;23.112;2022-10-16T12:52:53;8.48;;;2.90;;
52104;SDS011;38103;42.776;23.112;2022-10-16T12:55:19;11.30;;;3.10;;
52104;SDS011;38103;42.776;23.112;2022-10-16T13:06:51;9.80;;;3.67;;
52104;SDS011;38103;42.776;23.112;2022-10-16T13:12:05;8.25;;;2.70;;
52104;SDS011;38103;42.776;23.112;2022-10-16T13:22:56;9.98;;;3.50;;
52104;SDS011;38103;42.776;23.112;2022-10-16T13:30:31;9.20;;;3.42;;
52104;SDS011;38103;42.776;23.112;2022-10-16T13:33:12;8.48;;;3.08;;
52104;SDS011;38103;42.776;23.112;2022-10-16T13:35:51;8.93;;;2.45;;
52104;SDS011;38103;42.776;23.112;2022-10-16T13:38:19;7.82;;;2.30;;
52104;SDS011;38103;42.776;23.112;2022-10-16T13:43:20;7.25;;;2.38;;
52104;SDS011;38103;42.776;23.112;2022-10-16T13:45:55;7.38;;;2.35;;
52104;SDS011;38103;42.776;23.112;2022-10-16T13:48:22;7.65;;;2.50;;
52104;SDS011;38103;42.776;23.112;2022-10-16T13:50:57;6.95;;;2.50;;
52104;SDS011;38103;42.776;23.112;2022-10-16T13:53:27;7.30;;;2.70;;
52104;SDS011;38103;42.776;23.112;2022-10-16T13:55:55;7.88;;;2.63;;
52104;SDS011;38103;42.776;23.112;2022-10-16T13:58:21;9.55;;;2.75;;
52104;SDS011;38103;42.776;23.112;2022-10-16T14:00:53;10.57;;;2.80;;
52104;SDS011;38103;42.776;23.112;2022-10-16T14:03:42;6.85;;;2.40;;
52104;SDS011;38103;42.776;23.112;2022-10-16T14:06:16;12.70;;;2.95;;
52104;SDS011;38103;42.776;23.112;2022-10-16T14:08:48;7.72;;;2.70;;
52104;SDS011;38103;42.776;23.112;2022-10-16T14:11:24;8.10;;;2.78;;
52104;SDS011;38103;42.776;23.112;2022-10-16T14:13:50;8.52;;;2.80;;
52104;SDS011;38103;42.776;23.112;2022-10-16T14:16:23;7.93;;;2.70;;
52104;SDS011;38103;42.776;23.112;2022-10-16T14:18:59;13.05;;;2.75;;
52104;SDS011;38103;42.776;23.112;2022-10-16T14:21:27;9.23;;;2.80;;
52104;SDS011;38103;42.776;23.112;2022-10-16T14:23:53;7.68;;;2.70;;
52104;SDS011;38103;42.776;23.112;2022-10-16T14:26:20;8.32;;;2.70;;
52104;SDS011;38103;42.776;23.112;2022-10-16T14:28:48;6.95;;;2.63;;
52104;SDS011;38103;42.776;23.112;2022-10-16T14:31:30;9.63;;;2.80;;
52104;SDS011;38103;42.776;23.112;2022-10-16T14:33:57;8.70;;;2.72;;
52104;SDS011;38103;42.776;23.112;2022-10-16T14:36:23;8.52;;;2.83;;
52104;SDS011;38103;42.776;23.112;2022-10-16T14:41:46;8.75;;;2.60;;
52104;SDS011;38103;42.776;23.112;2022-10-16T14:44:13;9.68;;;2.80;;
52104;SDS011;38103;42.776;23.112;2022-10-16T14:46:41;10.50;;;3.28;;
52104;SDS011;38103;42.776;23.112;2022-10-16T14:51:34;11.57;;;3.58;;
52104;SDS011;38103;42.776;23.112;2022-10-16T14:53:59;9.88;;;3.25;;
52104;SDS011;38103;42.776;23.112;2022-10-16T14:56:28;13.63;;;3.42;;
52104;SDS011;38103;42.776;23.112;2022-10-16T14:58:55;8.48;;;3.10;;
52104;SDS011;38103;42.776;23.112;2022-10-16T15:01:22;11.45;;;3.13;;
52104;SDS011;38103;42.776;23.112;2022-10-16T15:03:47;9.18;;;3.55;;
52104;SDS011;38103;42.776;23.112;2022-10-16T15:06:14;11.73;;;3.35;;
52104;SDS011;38103;42.776;23.112;2022-10-16T15:08:40;10.07;;;3.85;;
52104;SDS011;38103;42.776;23.112;2022-10-16T15:11:12;10.30;;;4.05;;
52104;SDS011;38103;42.776;23.112;2022-10-16T15:13:42;12.27;;;3.60;;
52104;SDS011;38103;42.776;23.112;2022-10-16T15:16:10;15.02;;;3.47;;
52104;SDS011;38103;42.776;23.112;2022-10-16T15:18:38;13.20;;;3.38;;
52104;SDS011;38103;42.776;23.112;2022-10-16T15:21:03;10.50;;;3.53;;
52104;SDS011;38103;42.776;23.112;2022-10-16T15:23:29;10.35;;;3.17;;
52104;SDS011;38103;42.776;23.112;2022-10-16T15:25:55;10.77;;;3.65;;
52104;SDS011;38103;42.776;23.112;2022-10-16T15:28:21;16.02;;;3.60;;
52104;SDS011;38103;42.776;23.112;2022-10-16T15:30:49;14.18;;;3.50;;
52104;SDS011;38103;42.776;23.112;2022-10-16T15:33:20;10.45;;;3.95;;
52104;SDS011;38103;42.776;23.112;2022-10-16T15:35:48;10.02;;;3.40;;
52104;SDS011;38103;42.776;23.112;2022-10-16T15:38:15;9.60;;;3.60;;
52104;SDS011;38103;42.776;23.112;2022-10-16T15:40:42;9.90;;;3.65;;
52104;SDS011;38103;42.776;23.112;2022-10-16T15:43:07;13.60;;;4.10;;
52104;SDS011;38103;42.776;23.112;2022-10-16T15:45:33;17.35;;;4.57;;
52104;SDS011;38103;42.776;23.112;2022-10-16T15:47:59;14.43;;;4.72;;
52104;SDS011;38103;42.776;23.112;2022-10-16T15:50:24;13.98;;;5.25;;
52104;SDS011;38103;42.776;23.112;2022-10-16T15:52:50;13.48;;;5.55;;
52104;SDS011;38103;42.776;23.112;2022-10-16T15:55:16;16.70;;;5.82;;
52104;SDS011;38103;42.776;23.112;2022-10-16T15:57:43;17.75;;;5.20;;
52104;SDS011;38103;42.776;23.112;2022-10-16T16:00:13;11.73;;;5.03;;
52104;SDS011;38103;42.776;23.112;2022-10-16T16:02:43;13.90;;;5.03;;
52104;SDS011;38103;42.776;23.112;2022-10-16T16:05:14;17.83;;;4.25;;
52104;SDS011;38103;42.776;23.112;2022-10-16T16:07:40;14.00;;;3.83;;
52104;SDS011;38103;42.776;23.112;2022-10-16T16:10:06;19.30;;;4.20;;
52104;SDS011;38103;42.776;23.112;2022-10-16T16:12:33;12.73;;;3.70;;
52104;SDS011;38103;42.776;23.112;2022-10-16T16:14:58;16.80;;;3.97;;
52104;SDS011;38103;42.776;23.112;2022-10-16T16:17:24;10.07;;;3.83;;
52104;SDS011;38103;42.776;23.112;2022-10-16T16:19:49;11.50;;;3.70;;
52104;SDS011;38103;42.776;23.112;2022-10-16T16:22:15;9.68;;;3.70;;
52104;SDS011;38103;42.776;23.112;2022-10-16T16:24:41;12.68;;;4.13;;
52104;SDS011;38103;42.776;23.112;2022-10-16T16:27:06;10.60;;;3.97;;
52104;SDS011;38103;42.776;23.112;2022-10-16T16:29:32;11.73;;;3.97;;
52104;SDS011;38103;42.776;23.112;2022-10-16T16:31:58;10.32;;;4.00;;
52104;SDS011;38103;42.776;23.112;2022-10-16T16:34:25;13.70;;;3.97;;
52104;SDS011;38103;42.776;23.112;2022-10-16T16:36:51;11.13;;;4.28;;
52104;SDS011;38103;42.776;23.112;2022-10-16T16:39:17;11.13;;;3.85;;
52104;SDS011;38103;42.776;23.112;2022-10-16T16:41:43;13.13;;;3.78;;
52104;SDS011;38103;42.776;23.112;2022-10-16T16:44:10;10.00;;;4.25;;
52104;SDS011;38103;42.776;23.112;2022-10-16T16:46:36;10.93;;;4.15;;
52104;SDS011;38103;42.776;23.112;2022-10-16T16:49:04;10.20;;;4.10;;